createdAt,value
2023-07-12T00:03:00.319Z,96994.56
2023-07-12T00:08:03.741Z,96978.53
2023-07-12T00:13:05.519Z,97006.81
2023-07-12T00:18:14.950Z,97020.53
2023-07-12T00:23:18.206Z,97049.44
2023-07-12T00:28:24.503Z,97059.88
2023-07-12T00:33:26.188Z,97055.88
2023-07-12T00:38:28.096Z,97044.13
2023-07-12T00:43:42.680Z,97034.69
2023-07-12T00:48:48.114Z,97065.56
2023-07-12T00:53:49.867Z,97015.22
2023-07-12T00:59:04.500Z,97012.09
2023-07-12T01:04:09.027Z,96981.13
2023-07-12T01:09:14.697Z,97006.34
2023-07-12T01:14:18.300Z,97022.72
2023-07-12T01:19:20.246Z,96996.22
2023-07-12T01:24:24.753Z,96986.00
2023-07-12T01:29:29.304Z,96971.44
2023-07-12T01:34:31.220Z,96944.69
2023-07-12T01:39:36.500Z,96934.28
2023-07-12T01:44:39.206Z,96919.38
2023-07-12T01:49:41.475Z,96890.03
2023-07-12T01:54:43.373Z,96906.13
2023-07-12T01:59:45.476Z,96908.69
2023-07-12T02:04:47.637Z,96877.00
2023-07-12T02:10:16.435Z,96879.16
2023-07-12T02:15:19.934Z,96862.34
2023-07-12T02:20:22.268Z,96867.44
2023-07-12T02:25:24.447Z,96855.19
2023-07-12T02:30:29.060Z,96858.41
2023-07-12T02:35:32.715Z,96823.59
2023-07-12T02:40:34.593Z,96775.78
2023-07-12T02:45:36.498Z,96721.91
2023-07-12T02:50:38.390Z,96778.88
2023-07-12T02:55:40.235Z,96766.59
2023-07-12T03:00:42.886Z,96796.72
2023-07-12T03:05:44.648Z,96749.41
2023-07-12T03:10:46.845Z,96725.25
2023-07-12T03:15:50.872Z,96740.13
2023-07-12T03:20:52.686Z,96761.94
2023-07-12T03:25:54.501Z,96738.06
2023-07-12T03:31:12.336Z,96736.66
2023-07-12T03:36:16.339Z,96745.47
2023-07-12T03:41:21.695Z,96727.41
2023-07-12T03:46:23.814Z,96708.97
2023-07-12T03:51:25.732Z,96708.56
2023-07-12T03:56:27.591Z,96702.53
2023-07-12T04:01:30.133Z,96691.59
2023-07-12T04:06:32.374Z,96696.47
2023-07-12T04:11:36.894Z,96683.03
2023-07-12T04:16:38.917Z,96694.66
2023-07-12T04:21:40.668Z,96699.44
2023-07-12T04:26:42.400Z,96695.81
2023-07-12T04:31:44.384Z,96705.00
2023-07-12T04:36:46.192Z,96712.19
2023-07-12T04:41:47.951Z,96705.59
2023-07-12T04:46:49.927Z,96712.91
2023-07-12T04:51:51.703Z,96695.72
2023-07-12T04:56:53.462Z,96692.13
2023-07-12T05:01:55.423Z,96699.31
2023-07-12T05:06:57.573Z,96705.56
2023-07-12T05:11:59.275Z,96698.25
2023-07-12T05:17:01.065Z,96701.41
2023-07-12T05:22:02.982Z,96711.59
2023-07-12T05:27:05.289Z,96719.25
2023-07-12T05:32:07.318Z,96724.31
2023-07-12T05:37:11.081Z,96716.63
2023-07-12T05:42:12.982Z,96716.13
2023-07-12T05:47:14.976Z,96729.81
2023-07-12T05:52:17.182Z,96735.16
2023-07-12T05:57:18.930Z,96740.00
2023-07-12T06:02:20.671Z,96745.03
2023-07-12T06:07:22.640Z,96758.38
2023-07-12T06:12:25.320Z,96757.63
2023-07-12T06:17:27.198Z,96774.09
2023-07-12T06:22:29.274Z,96797.53
2023-07-12T06:27:31.117Z,96783.47
2023-07-12T06:32:34.252Z,96795.91
2023-07-12T06:37:36.010Z,96813.00
2023-07-12T06:42:38.121Z,96814.28
2023-07-12T06:47:39.874Z,96813.72
2023-07-12T06:52:41.702Z,96819.50
2023-07-12T06:57:43.452Z,96825.09
2023-07-12T07:02:45.275Z,96846.69
2023-07-12T07:07:47.222Z,96846.69
2023-07-12T07:12:49.136Z,96870.19
2023-07-12T07:17:50.881Z,96876.25
2023-07-12T07:22:52.702Z,96871.25
2023-07-12T07:27:56.100Z,96880.16
2023-07-12T07:32:59.513Z,96877.63
2023-07-12T07:38:01.451Z,96871.59
2023-07-12T07:43:03.298Z,96878.88
2023-07-12T07:48:05.633Z,96877.13
2023-07-12T07:53:07.541Z,96895.13
2023-07-12T07:58:10.975Z,96885.34
2023-07-12T08:03:12.992Z,96888.44
2023-07-12T08:08:15.166Z,96894.69
2023-07-12T08:13:17.375Z,96909.19
2023-07-12T08:18:19.561Z,96890.03
2023-07-12T08:23:22.046Z,96907.56
2023-07-12T08:28:23.748Z,96887.75
2023-07-12T08:33:25.831Z,96884.84
2023-07-12T08:38:32.285Z,96879.53
2023-07-12T08:43:34.936Z,96876.84
2023-07-12T08:48:37.034Z,96878.22
2023-07-12T08:53:42.096Z,96880.63
2023-07-12T08:58:51.601Z,96865.53
2023-07-12T09:03:53.401Z,96861.88
2023-07-12T09:08:55.772Z,96860.59
2023-07-12T09:13:58.619Z,96864.22
2023-07-12T09:19:13.438Z,96859.34
2023-07-12T09:24:24.276Z,96864.03
2023-07-12T09:29:28.599Z,96852.63
2023-07-12T09:34:37.899Z,96842.09
2023-07-12T09:39:39.884Z,96839.72
2023-07-12T09:44:43.460Z,96824.63
2023-07-12T09:50:05.446Z,96817.59
2023-07-12T09:55:33.352Z,96834.59
2023-07-12T10:00:44.021Z,96817.56
2023-07-12T10:05:56.130Z,96826.88
2023-07-12T10:11:06.590Z,96840.38
2023-07-12T10:16:31.399Z,96836.75
2023-07-12T10:21:33.625Z,96825.75
2023-07-12T10:26:36.918Z,96825.00
2023-07-12T10:31:49.470Z,96826.06
2023-07-12T10:36:56.032Z,96836.69
2023-07-12T10:42:08.080Z,96837.56
2023-07-12T10:47:16.808Z,96842.41
2023-07-12T10:52:28.617Z,96840.06
2023-07-12T10:57:51.604Z,96847.78
2023-07-12T11:03:17.118Z,96858.88
2023-07-12T11:08:31.096Z,96848.56
2023-07-12T11:13:35.286Z,96854.69
2023-07-12T11:18:38.775Z,96852.13
2023-07-12T11:23:43.865Z,96849.84
2023-07-12T11:28:45.665Z,96852.56
2023-07-12T11:34:15.704Z,96843.59
2023-07-12T11:39:19.792Z,96833.19
2023-07-12T11:44:21.658Z,96824.53
2023-07-12T11:49:29.144Z,96818.50
2023-07-12T11:54:39.092Z,96817.44
2023-07-12T11:59:45.740Z,96811.75
2023-07-12T12:04:51.745Z,96814.16
2023-07-12T12:09:55.546Z,96807.63
2023-07-12T12:14:58.366Z,96814.72
2023-07-12T12:20:33.368Z,96790.13
2023-07-12T12:26:12.945Z,96795.69
2023-07-12T12:31:14.774Z,96801.25
2023-07-12T12:36:28.788Z,96799.94
2023-07-12T12:41:37.326Z,96804.53
2023-07-12T13:07:02.979Z,96805.56
2023-07-12T13:22:25.546Z,96784.75
2023-07-12T13:27:34.151Z,96816.84
2023-07-12T13:32:35.994Z,96818.78
2023-07-12T13:37:43.071Z,96836.41
2023-07-12T13:42:57.204Z,96838.63
2023-07-12T13:48:00.250Z,96834.19
2023-07-12T13:53:02.191Z,96833.59
2023-07-12T13:58:14.144Z,96853.13
2023-07-12T14:03:22.181Z,96831.44
2023-07-12T14:08:37.360Z,96820.94
2023-07-12T14:13:40.331Z,96866.53
2023-07-12T14:18:42.563Z,96913.72
2023-07-12T14:23:44.683Z,96870.16
2023-07-12T14:28:55.325Z,96849.75
2023-07-12T14:33:57.954Z,96849.41
2023-07-12T14:39:01.684Z,96850.63
2023-07-12T14:44:15.567Z,96848.25
2023-07-12T14:49:17.744Z,96850.53
2023-07-12T14:54:21.891Z,96855.75
2023-07-12T14:59:23.814Z,96865.03
2023-07-12T15:04:26.388Z,96843.19
2023-07-12T15:09:28.456Z,96838.56
2023-07-12T15:14:30.253Z,96850.13
2023-07-12T15:19:33.260Z,96852.34
2023-07-12T15:24:35.563Z,96848.22
2023-07-12T15:29:37.608Z,96839.47
2023-07-12T15:34:39.846Z,96836.63
2023-07-12T15:39:47.809Z,96849.97
2023-07-12T15:44:52.987Z,96857.28
2023-07-12T15:49:55.072Z,96866.53
2023-07-12T15:54:57.004Z,96868.47
2023-07-12T15:59:59.393Z,96867.75
2023-07-12T16:05:03.643Z,96865.31
2023-07-12T16:10:06.044Z,96849.00
2023-07-12T16:15:17.591Z,96859.28
2023-07-12T16:20:20.394Z,96849.91
2023-07-12T16:25:24.846Z,96861.59
2023-07-12T16:30:27.217Z,96842.59
2023-07-12T16:35:29.093Z,96802.25
2023-07-12T16:40:31.013Z,96812.16
2023-07-12T16:45:32.824Z,96794.81
2023-07-12T16:50:35.150Z,96802.00
2023-07-12T16:55:38.570Z,96825.94
2023-07-12T17:00:41.842Z,96815.97
2023-07-12T17:05:44.802Z,96816.19
2023-07-12T17:10:46.899Z,96828.31
2023-07-12T17:15:48.691Z,96832.13
2023-07-12T17:20:54.931Z,96824.31
2023-07-12T17:25:59.586Z,96836.13
2023-07-12T17:31:12.822Z,96835.03
2023-07-12T17:36:19.110Z,96849.38
2023-07-12T17:41:26.261Z,96852.63
2023-07-12T17:46:28.740Z,96851.81
2023-07-12T17:51:30.593Z,96865.03
2023-07-12T17:56:32.308Z,96868.38
2023-07-12T18:01:34.132Z,96864.94
2023-07-12T18:06:36.138Z,96849.28
2023-07-12T18:11:41.477Z,96839.03
2023-07-12T18:16:43.723Z,96850.38
2023-07-12T18:21:45.615Z,96855.06
2023-07-12T18:26:48.962Z,96838.84
2023-07-12T18:31:51.720Z,96874.16
2023-07-12T18:36:53.650Z,96867.69
2023-07-12T18:41:57.421Z,96856.41
2023-07-12T18:46:59.898Z,96852.53
2023-07-12T18:52:01.830Z,96844.47
2023-07-12T18:57:04.676Z,96867.63
2023-07-12T19:02:15.621Z,96872.44
2023-07-12T19:07:23.872Z,96855.22
2023-07-12T19:12:26.048Z,96842.69
2023-07-12T19:17:27.958Z,96847.41
2023-07-12T19:22:29.803Z,96840.44
2023-07-12T19:27:42.708Z,96862.06
2023-07-12T19:32:45.679Z,96877.19
2023-07-12T19:37:48.213Z,96884.13
2023-07-12T19:42:54.079Z,96901.81
2023-07-12T19:47:56.085Z,96944.34
2023-07-12T19:52:58.363Z,96960.16
2023-07-12T19:58:00.345Z,96960.59
2023-07-12T20:03:02.517Z,96970.84
2023-07-12T20:08:05.337Z,96985.00
2023-07-12T20:13:09.649Z,96996.25
2023-07-12T20:18:13.239Z,96987.53
2023-07-12T20:23:15.212Z,96988.94
2023-07-12T20:28:18.569Z,96989.66
2023-07-12T20:33:22.469Z,96976.66
2023-07-12T20:38:24.148Z,96982.69
2023-07-12T20:43:26.157Z,97039.78
2023-07-12T20:48:36.069Z,97013.09
2023-07-12T20:53:39.201Z,97026.09
2023-07-12T20:58:41.143Z,96983.59
2023-07-12T21:03:44.057Z,97016.34
2023-07-12T21:08:47.049Z,96993.34
2023-07-12T21:13:49.047Z,96957.28
2023-07-12T21:18:52.728Z,96972.94
2023-07-12T21:23:54.791Z,96982.06
2023-07-12T21:28:56.784Z,96978.44
2023-07-12T21:33:59.467Z,96985.16
2023-07-12T21:39:01.635Z,96956.75
2023-07-12T21:44:03.579Z,96957.13
2023-07-12T21:49:05.448Z,96957.31
2023-07-12T21:54:07.443Z,96948.28
2023-07-12T21:59:09.508Z,96933.81
2023-07-12T22:04:11.578Z,96948.84
2023-07-12T22:09:14.289Z,96956.50
2023-07-12T22:14:16.713Z,96959.38
2023-07-12T22:19:18.734Z,96982.13
2023-07-12T22:24:20.607Z,96976.56
2023-07-12T22:29:23.109Z,96979.81
2023-07-12T22:34:26.006Z,96974.91
2023-07-12T22:39:29.033Z,96975.59
2023-07-12T22:44:30.935Z,96977.94
2023-07-12T22:49:32.777Z,96999.50
2023-07-12T22:54:34.942Z,97004.13
2023-07-12T22:59:37.396Z,97015.94
2023-07-12T23:04:39.374Z,97031.00
2023-07-12T23:09:42.415Z,97036.44
2023-07-12T23:14:44.712Z,97041.25
2023-07-12T23:19:47.172Z,97030.28
2023-07-12T23:24:50.418Z,97041.00
2023-07-12T23:29:52.314Z,97034.13
2023-07-12T23:34:54.096Z,97022.94
2023-07-12T23:39:57.223Z,97007.19
2023-07-12T23:44:59.087Z,97010.31
2023-07-12T23:50:01.862Z,96995.47
2023-07-12T23:55:04.314Z,97018.19
